createdAt,value
2023-05-01T00:02:38.222Z,57.60
2023-05-01T00:05:40.837Z,57.48
2023-05-01T00:08:43.207Z,58.03
2023-05-01T00:11:46.428Z,59.43
2023-05-01T00:14:48.743Z,59.79
2023-05-01T00:17:51.729Z,61.11
2023-05-01T00:20:54.073Z,62.24
2023-05-01T00:23:56.493Z,61.93
2023-05-01T00:26:59.027Z,61.27
2023-05-01T00:30:01.841Z,61.19
2023-05-01T00:33:04.271Z,61.31
2023-05-01T00:36:06.754Z,61.74
2023-05-01T00:39:09.124Z,61.41
2023-05-01T00:42:11.492Z,60.95
2023-05-01T00:45:14.571Z,61.09
2023-05-01T00:48:17.272Z,60.52
2023-05-01T00:51:20.155Z,60.82
2023-05-01T00:54:23.227Z,60.56
2023-05-01T00:57:25.618Z,61.33
2023-05-01T01:00:29.594Z,61.18
2023-05-01T01:03:32.214Z,61.67
2023-05-01T01:06:35.997Z,61.69
2023-05-01T01:09:53.810Z,61.07
2023-05-01T01:13:16.564Z,61.30
2023-05-01T01:16:36.579Z,60.72
2023-05-01T01:20:06.804Z,60.44
2023-05-01T01:23:33.204Z,59.96
2023-05-01T01:27:13.116Z,59.60
2023-05-01T01:30:52.602Z,59.69
2023-05-01T01:34:02.542Z,59.89
2023-05-01T01:37:08.818Z,60.28
2023-05-01T01:40:16.510Z,60.06
2023-05-01T01:43:18.871Z,60.24
2023-05-01T01:46:21.299Z,60.87
2023-05-01T01:49:25.393Z,60.28
2023-05-01T01:52:27.915Z,60.08
2023-05-01T01:55:30.480Z,59.61
2023-05-01T01:58:33.327Z,60.10
2023-05-01T02:01:35.913Z,59.61
2023-05-01T02:04:38.343Z,60.17
2023-05-01T02:07:40.975Z,59.63
2023-05-01T02:10:43.997Z,59.20
2023-05-01T02:13:46.371Z,60.04
2023-05-01T02:16:48.958Z,59.87
2023-05-01T02:19:53.295Z,59.33
2023-05-01T02:22:55.858Z,59.80
2023-05-01T02:25:58.518Z,59.29
2023-05-01T02:29:00.886Z,59.04
2023-05-01T02:32:03.794Z,58.59
2023-05-01T02:35:06.681Z,58.24
2023-05-01T02:38:09.232Z,58.35
2023-05-01T02:41:11.618Z,58.53
2023-05-01T02:44:13.953Z,58.06
2023-05-01T02:47:18.109Z,57.76
2023-05-01T02:50:20.487Z,57.86
2023-05-01T02:53:22.917Z,57.59
2023-05-01T02:56:29.476Z,57.46
2023-05-01T02:59:59.879Z,58.15
2023-05-01T03:03:02.235Z,58.90
2023-05-01T03:06:05.075Z,59.68
2023-05-01T03:09:08.227Z,59.18
2023-05-01T03:12:12.208Z,59.86
2023-05-01T03:15:14.726Z,59.34
2023-05-01T03:18:17.677Z,59.22
2023-05-01T03:21:19.981Z,58.87
2023-05-01T03:24:22.360Z,59.44
2023-05-01T03:27:24.723Z,59.14
2023-05-01T03:30:27.220Z,58.94
2023-05-01T03:33:31.670Z,59.11
2023-05-01T03:36:34.084Z,58.65
2023-05-01T03:39:37.236Z,58.38
2023-05-01T03:42:57.965Z,58.92
2023-05-01T03:46:00.380Z,58.12
2023-05-01T03:49:03.036Z,58.40
2023-05-01T03:52:10.272Z,58.51
2023-05-01T03:55:13.019Z,59.07
2023-05-01T03:58:16.753Z,58.95
2023-05-01T04:01:19.755Z,58.66
2023-05-01T04:04:23.251Z,58.42
2023-05-01T04:07:31.570Z,57.48
2023-05-01T04:10:33.926Z,57.31
2023-05-01T04:13:39.964Z,55.99
2023-05-01T04:16:43.284Z,55.03
2023-05-01T04:19:47.979Z,53.73
2023-05-01T04:22:50.438Z,53.57
2023-05-01T04:25:53.326Z,53.08
2023-05-01T04:28:55.854Z,53.11
2023-05-01T04:32:01.023Z,52.71
2023-05-01T04:35:05.015Z,52.53
2023-05-01T04:38:08.030Z,52.04
2023-05-01T04:41:10.497Z,52.49
2023-05-01T04:44:13.548Z,51.95
2023-05-01T04:47:16.112Z,51.92
2023-05-01T04:50:18.447Z,52.03
2023-05-01T04:53:21.687Z,51.48
2023-05-01T04:56:25.093Z,51.41
2023-05-01T04:59:31.496Z,51.77
2023-05-01T05:02:34.053Z,51.42
2023-05-01T05:05:36.672Z,51.12
2023-05-01T05:08:41.036Z,51.02
2023-05-01T05:11:45.513Z,50.03
2023-05-01T05:14:55.820Z,50.46
2023-05-01T05:17:58.350Z,50.36
2023-05-01T05:21:04.785Z,50.26
2023-05-01T05:24:07.733Z,50.67
2023-05-01T05:27:10.111Z,51.23
2023-05-01T05:30:12.859Z,49.65
2023-05-01T05:33:15.512Z,49.46
2023-05-01T05:36:17.998Z,50.20
2023-05-01T05:39:23.732Z,49.84
2023-05-01T05:42:26.550Z,50.49
2023-05-01T05:45:29.447Z,50.17
2023-05-01T05:48:32.594Z,50.10
2023-05-01T05:51:34.899Z,50.18
2023-05-01T05:54:37.724Z,50.23
2023-05-01T05:57:40.082Z,50.37
2023-05-01T06:00:43.060Z,50.23
2023-05-01T06:03:45.588Z,50.76
2023-05-01T06:06:48.923Z,50.64
2023-05-01T06:09:51.318Z,50.44
2023-05-01T06:12:59.633Z,50.19
2023-05-01T06:16:07.810Z,50.88
2023-05-01T06:19:12.170Z,50.78
2023-05-01T06:22:15.542Z,50.11
2023-05-01T06:25:33.684Z,50.06
2023-05-01T06:28:36.036Z,50.46
2023-05-01T06:31:38.922Z,49.46
2023-05-01T06:34:41.372Z,49.98
2023-05-01T06:37:43.748Z,49.41
2023-05-01T06:40:49.114Z,49.39
2023-05-01T06:43:51.934Z,49.14
2023-05-01T06:46:54.474Z,49.52
2023-05-01T06:49:57.040Z,49.89
2023-05-01T06:53:03.112Z,50.01
2023-05-01T06:56:06.304Z,49.53
2023-05-01T06:59:09.053Z,48.96
2023-05-01T07:02:11.549Z,48.51
2023-05-01T07:05:14.026Z,49.27
2023-05-01T07:08:16.458Z,49.41
2023-05-01T07:11:19.050Z,49.22
2023-05-01T07:14:21.376Z,48.89
2023-05-01T07:17:23.801Z,48.57
2023-05-01T07:20:26.323Z,48.31
2023-05-01T07:23:29.094Z,48.40
2023-05-01T07:26:31.545Z,48.08
2023-05-01T07:29:35.379Z,47.35
2023-05-01T07:32:38.003Z,47.83
2023-05-01T07:35:40.361Z,47.89
2023-05-01T07:38:42.650Z,47.37
2023-05-01T07:41:45.048Z,47.02
2023-05-01T07:44:47.460Z,47.20
2023-05-01T07:47:50.143Z,47.28
2023-05-01T07:50:52.631Z,47.39
2023-05-01T07:53:54.958Z,45.95
2023-05-01T07:56:57.535Z,46.79
2023-05-01T07:59:59.899Z,45.93
2023-05-01T08:03:02.602Z,46.27
2023-05-01T08:06:06.108Z,45.29
2023-05-01T08:09:08.483Z,45.36
2023-05-01T08:12:10.924Z,45.74
2023-05-01T08:15:13.257Z,44.83
2023-05-01T08:18:20.478Z,44.82
2023-05-01T08:21:23.150Z,44.45
2023-05-01T08:24:25.915Z,44.51
2023-05-01T08:27:28.236Z,44.54
2023-05-01T08:30:31.725Z,44.62
2023-05-01T08:33:34.151Z,44.48
2023-05-01T08:36:36.588Z,43.47
2023-05-01T08:39:38.945Z,43.11
2023-05-01T08:42:41.364Z,43.54
2023-05-01T08:45:43.689Z,43.82
2023-05-01T08:48:46.137Z,43.12
2023-05-01T08:51:48.606Z,43.20
2023-05-01T08:54:51.051Z,42.20
2023-05-01T08:57:53.430Z,43.26
2023-05-01T09:00:56.756Z,41.81
2023-05-01T09:03:59.441Z,42.29
2023-05-01T09:07:02.175Z,41.74
2023-05-01T09:10:04.879Z,42.07
2023-05-01T09:13:08.384Z,41.52
2023-05-01T09:16:11.171Z,40.81
2023-05-01T09:19:13.570Z,40.57
2023-05-01T09:22:16.219Z,39.95
2023-05-01T09:25:19.473Z,40.26
2023-05-01T09:28:41.668Z,41.59
2023-05-01T09:31:44.068Z,40.18
2023-05-01T09:34:49.510Z,39.10
2023-05-01T09:37:52.073Z,38.83
2023-05-01T09:40:56.630Z,37.80
2023-05-01T09:43:59.351Z,37.91
2023-05-01T09:47:01.724Z,38.08
2023-05-01T09:50:04.584Z,38.10
2023-05-01T09:53:07.132Z,37.45
2023-05-01T09:56:09.604Z,38.36
2023-05-01T09:59:16.596Z,37.49
2023-05-01T10:02:29.761Z,37.17
2023-05-01T10:05:43.225Z,36.48
2023-05-01T10:08:48.975Z,35.27
2023-05-01T10:11:53.709Z,34.99
2023-05-01T10:14:57.789Z,34.93
2023-05-01T10:18:00.180Z,33.88
2023-05-01T10:21:03.905Z,34.57
2023-05-01T10:24:07.417Z,34.83
2023-05-01T10:27:10.453Z,34.56
2023-05-01T10:30:12.961Z,33.85
2023-05-01T10:33:15.476Z,34.43
2023-05-01T10:36:38.152Z,32.12
2023-05-01T10:39:40.720Z,33.71
2023-05-01T10:43:28.741Z,33.12
2023-05-01T10:46:31.311Z,32.02
2023-05-01T10:50:08.843Z,32.22
2023-05-01T10:53:14.772Z,32.15
2023-05-01T10:56:26.992Z,31.29
2023-05-01T11:00:01.905Z,31.19
2023-05-01T11:03:22.290Z,30.57
2023-05-01T11:06:25.327Z,29.49
2023-05-01T11:09:44.223Z,29.58
2023-05-01T11:12:46.574Z,29.05
2023-05-01T11:15:49.081Z,28.90
2023-05-01T11:18:51.502Z,29.44
2023-05-01T11:21:54.377Z,28.99
2023-05-01T11:24:57.179Z,28.40
2023-05-01T11:28:01.911Z,27.73
2023-05-01T11:31:04.272Z,28.58
2023-05-01T11:34:09.353Z,27.64
2023-05-01T11:37:11.672Z,27.26
2023-05-01T11:40:40.518Z,27.67
2023-05-01T11:43:57.516Z,27.54
2023-05-01T11:47:01.324Z,27.02
2023-05-01T11:50:03.851Z,28.20
2023-05-01T11:53:15.722Z,27.86
2023-05-01T11:56:26.597Z,27.69
2023-05-01T11:59:30.678Z,27.25
2023-05-01T12:02:33.434Z,26.96
2023-05-01T12:05:37.422Z,27.22
2023-05-01T12:08:48.708Z,26.57
2023-05-01T12:11:52.813Z,26.02
2023-05-01T12:14:55.980Z,26.61
2023-05-01T12:17:59.020Z,26.92
2023-05-01T12:21:01.360Z,27.05
2023-05-01T12:24:16.525Z,27.75
2023-05-01T12:27:19.853Z,27.82
2023-05-01T12:30:26.919Z,26.97
2023-05-01T12:33:30.168Z,26.96
2023-05-01T12:36:33.891Z,27.13
2023-05-01T12:39:40.312Z,26.96
2023-05-01T12:42:42.675Z,27.02
2023-05-01T12:45:45.024Z,26.93
2023-05-01T12:48:49.285Z,27.85
2023-05-01T12:51:55.833Z,27.32
2023-05-01T12:55:05.484Z,27.07
2023-05-01T12:58:07.812Z,26.70
2023-05-01T13:01:10.247Z,25.96
2023-05-01T13:04:12.596Z,26.04
2023-05-01T13:07:16.550Z,26.86
2023-05-01T13:10:29.596Z,25.58
2023-05-01T13:13:34.427Z,25.64
2023-05-01T13:16:48.829Z,26.31
2023-05-01T13:20:02.169Z,26.34
2023-05-01T13:23:10.796Z,26.99
2023-05-01T13:26:13.110Z,25.73
2023-05-01T13:29:15.839Z,27.34
2023-05-01T13:32:18.180Z,27.27
2023-05-01T13:35:24.951Z,27.61
2023-05-01T13:38:27.376Z,26.93
2023-05-01T13:41:30.585Z,27.57
2023-05-01T13:44:32.930Z,27.44
2023-05-01T13:47:35.494Z,27.60
2023-05-01T13:50:40.460Z,27.88
2023-05-01T13:53:42.916Z,27.92
2023-05-01T13:56:45.354Z,27.50
2023-05-01T13:59:47.889Z,28.67
2023-05-01T14:02:50.370Z,29.52
2023-05-01T14:05:52.731Z,29.58
2023-05-01T14:08:57.792Z,29.20
2023-05-01T14:12:01.012Z,29.01
2023-05-01T14:15:05.152Z,29.74
2023-05-01T14:18:07.658Z,28.41
2023-05-01T14:21:10.052Z,29.95
2023-05-01T14:24:12.533Z,29.70
2023-05-01T14:27:15.189Z,30.14
2023-05-01T14:30:27.750Z,30.32
2023-05-01T14:33:30.106Z,30.60
2023-05-01T14:36:32.915Z,30.16
2023-05-01T14:39:35.342Z,29.73
2023-05-01T14:42:39.556Z,30.57
2023-05-01T14:45:43.099Z,30.30
2023-05-01T14:48:45.519Z,30.83
2023-05-01T14:51:48.452Z,32.24
2023-05-01T14:54:52.887Z,32.13
2023-05-01T14:57:58.156Z,32.07
2023-05-01T15:01:02.155Z,32.50
2023-05-01T15:04:07.406Z,32.39
2023-05-01T15:07:09.893Z,32.14
2023-05-01T15:10:12.432Z,32.89
2023-05-01T15:13:14.728Z,32.54
2023-05-01T15:16:17.218Z,31.75
2023-05-01T15:19:19.705Z,32.38
2023-05-01T15:22:21.993Z,31.78
2023-05-01T15:25:24.352Z,32.04
2023-05-01T15:28:26.885Z,33.45
2023-05-01T15:31:30.688Z,33.21
2023-05-01T15:34:33.272Z,33.33
2023-05-01T15:37:35.799Z,32.79
2023-05-01T15:40:38.729Z,33.98
2023-05-01T15:43:41.148Z,33.46
2023-05-01T15:46:43.569Z,34.26
2023-05-01T15:49:46.069Z,34.32
2023-05-01T15:52:48.401Z,33.67
2023-05-01T15:55:51.695Z,34.14
2023-05-01T15:58:54.063Z,34.81
2023-05-01T16:01:56.538Z,34.06
2023-05-01T16:04:59.571Z,34.35
2023-05-01T16:08:02.087Z,34.59
2023-05-01T16:11:04.437Z,33.53
2023-05-01T16:14:10.129Z,34.09
2023-05-01T16:17:12.644Z,35.30
2023-05-01T16:20:17.244Z,35.37
2023-05-01T16:23:19.571Z,35.88
2023-05-01T16:26:23.185Z,36.17
2023-05-01T16:29:26.013Z,36.23
2023-05-01T16:32:28.377Z,35.82
2023-05-01T16:35:31.817Z,36.14
2023-05-01T16:38:34.954Z,36.51
2023-05-01T16:41:52.700Z,36.90
2023-05-01T16:44:56.598Z,36.79
2023-05-01T16:47:59.077Z,37.22
2023-05-01T16:51:05.346Z,37.67
2023-05-01T16:54:07.685Z,37.75
2023-05-01T16:57:10.194Z,38.12
2023-05-01T17:00:14.076Z,38.60
2023-05-01T17:03:16.827Z,39.32
2023-05-01T17:06:19.245Z,39.56
2023-05-01T17:09:21.751Z,39.58
2023-05-01T17:12:31.477Z,39.99
2023-05-01T17:15:33.961Z,40.38
2023-05-01T17:18:36.619Z,40.30
2023-05-01T17:21:38.949Z,40.16
2023-05-01T17:24:41.772Z,40.33
2023-05-01T17:27:44.121Z,40.70
2023-05-01T17:30:46.425Z,40.87
2023-05-01T17:33:48.812Z,41.77
2023-05-01T17:36:51.175Z,41.85
2023-05-01T17:39:53.730Z,42.12
2023-05-01T17:42:56.118Z,42.54
2023-05-01T17:45:58.614Z,43.36
2023-05-01T17:49:01.191Z,44.00
2023-05-01T17:52:03.718Z,44.79
2023-05-01T17:55:06.760Z,43.97
2023-05-01T17:58:09.196Z,44.74
2023-05-01T18:01:11.599Z,44.74
2023-05-01T18:04:14.322Z,44.72
2023-05-01T18:07:16.986Z,45.02
2023-05-01T18:10:19.274Z,46.13
2023-05-01T18:13:27.782Z,46.77
2023-05-01T18:16:30.218Z,47.27
2023-05-01T18:19:32.868Z,46.66
2023-05-01T18:22:35.202Z,46.38
2023-05-01T18:25:37.741Z,46.50
2023-05-01T18:28:40.125Z,46.56
2023-05-01T18:31:42.486Z,46.79
2023-05-01T18:34:46.004Z,46.91
2023-05-01T18:37:48.521Z,47.16
2023-05-01T18:40:50.872Z,47.61
2023-05-01T18:43:56.329Z,47.81
2023-05-01T18:47:00.201Z,48.55
2023-05-01T18:50:02.713Z,49.44
2023-05-01T18:53:05.112Z,49.99
2023-05-01T18:56:09.538Z,50.12
2023-05-01T18:59:11.894Z,50.33
2023-05-01T19:02:14.241Z,50.22
2023-05-01T19:05:16.656Z,50.54
2023-05-01T19:08:19.036Z,50.31
2023-05-01T19:11:21.720Z,50.44
2023-05-01T19:14:24.078Z,50.44
2023-05-01T19:17:27.819Z,50.51
2023-05-01T19:20:31.402Z,50.25
2023-05-01T19:23:35.584Z,50.58
2023-05-01T19:26:37.899Z,50.49
2023-05-01T19:29:40.515Z,51.14
2023-05-01T19:32:42.882Z,51.66
2023-05-01T19:35:45.618Z,51.71
2023-05-01T19:38:47.942Z,52.11
2023-05-01T19:41:50.469Z,51.73
2023-05-01T19:44:52.847Z,52.42
2023-05-01T19:47:55.382Z,52.29
2023-05-01T19:50:57.957Z,52.65
2023-05-01T19:54:01.258Z,52.77
2023-05-01T19:57:03.646Z,53.04
2023-05-01T20:00:07.175Z,53.21
2023-05-01T20:03:13.170Z,52.83
2023-05-01T20:06:15.689Z,53.62
2023-05-01T20:09:18.017Z,53.95
2023-05-01T20:12:20.406Z,53.55
2023-05-01T20:15:22.997Z,53.48
2023-05-01T20:18:25.370Z,53.22
2023-05-01T20:21:27.731Z,53.25
2023-05-01T20:24:30.176Z,53.48
2023-05-01T20:27:32.534Z,53.67
2023-05-01T20:30:38.581Z,53.62
2023-05-01T20:33:41.456Z,53.83
2023-05-01T20:36:43.813Z,54.05
2023-05-01T20:39:46.275Z,53.98
2023-05-01T20:42:48.592Z,54.70
2023-05-01T20:45:51.044Z,53.76
2023-05-01T20:48:54.300Z,54.30
2023-05-01T20:51:59.431Z,54.08
2023-05-01T20:55:01.733Z,54.36
2023-05-01T20:58:04.095Z,54.48
2023-05-01T21:01:06.782Z,55.07
2023-05-01T21:04:09.262Z,54.51
2023-05-01T21:07:11.858Z,54.49
2023-05-01T21:10:16.504Z,54.55
2023-05-01T21:13:21.027Z,54.77
2023-05-01T21:16:23.500Z,54.92
2023-05-01T21:19:25.912Z,55.28
2023-05-01T21:22:28.318Z,55.61
2023-05-01T21:25:32.024Z,55.41
2023-05-01T21:28:34.450Z,56.15
2023-05-01T21:31:37.009Z,55.49
2023-05-01T21:34:39.357Z,55.33
2023-05-01T21:37:43.312Z,56.65
2023-05-01T21:40:46.271Z,56.46
2023-05-01T21:43:48.588Z,55.47
2023-05-01T21:46:51.129Z,55.60
2023-05-01T21:49:57.078Z,55.99
2023-05-01T21:52:59.630Z,55.65
2023-05-01T21:56:01.917Z,55.87
2023-05-01T21:59:05.377Z,54.89
2023-05-01T22:02:08.657Z,55.07
2023-05-01T22:05:11.747Z,54.66
2023-05-01T22:08:14.129Z,54.38
2023-05-01T22:11:16.497Z,54.15
2023-05-01T22:14:18.942Z,54.37
2023-05-01T22:17:24.475Z,54.79
2023-05-01T22:20:26.866Z,55.00
2023-05-01T22:23:29.227Z,54.22
2023-05-01T22:26:31.587Z,54.15
2023-05-01T22:29:34.286Z,54.32
2023-05-01T22:32:36.815Z,53.88
2023-05-01T22:35:39.129Z,54.20
2023-05-01T22:38:41.529Z,54.59
2023-05-01T22:41:43.857Z,54.41
2023-05-01T22:44:46.215Z,54.37
2023-05-01T22:47:48.601Z,54.81
2023-05-01T22:50:50.989Z,54.98
2023-05-01T22:53:53.280Z,55.06
2023-05-01T22:56:56.335Z,54.74
2023-05-01T22:59:58.953Z,55.11
2023-05-01T23:03:01.933Z,55.32
2023-05-01T23:06:04.534Z,55.21
2023-05-01T23:09:07.275Z,55.02
2023-05-01T23:12:17.799Z,55.59
2023-05-01T23:15:25.183Z,55.96
2023-05-01T23:18:31.846Z,56.69
2023-05-01T23:21:34.147Z,56.91
2023-05-01T23:24:56.786Z,57.48
2023-05-01T23:27:59.187Z,58.13
2023-05-01T23:31:02.417Z,58.09
2023-05-01T23:34:04.777Z,58.58
2023-05-01T23:37:07.105Z,58.81
2023-05-01T23:40:09.686Z,58.53
2023-05-01T23:43:12.650Z,58.59
2023-05-01T23:46:15.620Z,58.66
2023-05-01T23:49:18.024Z,59.28
2023-05-01T23:52:20.615Z,59.27
2023-05-01T23:55:22.952Z,59.71
2023-05-01T23:58:25.369Z,60.33
